sensor_id;sensor_type;location;lat;lon;timestamp;P1;durP1;ratioP1;P2;durP2;ratioP2
9372;SDS011;10838;52.350;9.790;2023-04-15T09:56:33;7.07;;;5.30;;
9372;SDS011;10838;52.350;9.790;2023-04-15T09:59:01;10.57;;;6.40;;
9372;SDS011;10838;52.350;9.790;2023-04-15T10:01:28;9.33;;;7.07;;
9372;SDS011;10838;52.350;9.790;2023-04-15T10:03:55;9.07;;;6.67;;
9372;SDS011;10838;52.350;9.790;2023-04-15T10:06:22;10.80;;;7.43;;
9372;SDS011;10838;52.350;9.790;2023-04-15T10:08:51;10.50;;;8.13;;
9372;SDS011;10838;52.350;9.790;2023-04-15T10:11:19;14.57;;;8.43;;
9372;SDS011;10838;52.350;9.790;2023-04-15T10:13:49;12.10;;;8.93;;
9372;SDS011;10838;52.350;9.790;2023-04-15T10:16:18;10.87;;;8.43;;
9372;SDS011;10838;52.350;9.790;2023-04-15T10:18:46;13.07;;;8.30;;
9372;SDS011;10838;52.350;9.790;2023-04-15T10:21:16;12.93;;;8.43;;
9372;SDS011;10838;52.350;9.790;2023-04-15T10:23:44;14.90;;;8.80;;
9372;SDS011;10838;52.350;9.790;2023-04-15T10:26:11;16.20;;;9.50;;
9372;SDS011;10838;52.350;9.790;2023-04-15T10:28:39;12.13;;;9.50;;
9372;SDS011;10838;52.350;9.790;2023-04-15T10:31:08;14.50;;;9.77;;
9372;SDS011;10838;52.350;9.790;2023-04-15T10:33:38;17.63;;;11.80;;
9372;SDS011;10838;52.350;9.790;2023-04-15T10:36:06;17.47;;;11.03;;
9372;SDS011;10838;52.350;9.790;2023-04-15T10:38:34;19.07;;;11.50;;
9372;SDS011;10838;52.350;9.790;2023-04-15T10:41:11;24.17;;;12.60;;
9372;SDS011;10838;52.350;9.790;2023-04-15T10:43:50;20.67;;;11.93;;
9372;SDS011;10838;52.350;9.790;2023-04-15T10:46:21;21.03;;;13.03;;
9372;SDS011;10838;52.350;9.790;2023-04-15T10:48:49;23.97;;;13.30;;
9372;SDS011;10838;52.350;9.790;2023-04-15T10:51:25;24.43;;;12.57;;
9372;SDS011;10838;52.350;9.790;2023-04-15T10:53:55;32.47;;;15.87;;
9372;SDS011;10838;52.350;9.790;2023-04-15T10:56:23;28.07;;;14.53;;
9372;SDS011;10838;52.350;9.790;2023-04-15T10:58:50;23.83;;;15.17;;
9372;SDS011;10838;52.350;9.790;2023-04-15T11:01:18;31.63;;;16.57;;
9372;SDS011;10838;52.350;9.790;2023-04-15T11:03:46;34.53;;;17.50;;
9372;SDS011;10838;52.350;9.790;2023-04-15T11:06:14;33.83;;;18.77;;
9372;SDS011;10838;52.350;9.790;2023-04-15T11:08:54;35.63;;;18.70;;
9372;SDS011;10838;52.350;9.790;2023-04-15T11:14:23;34.67;;;18.40;;
9372;SDS011;10838;52.350;9.790;2023-04-15T11:16:50;35.53;;;18.83;;
9372;SDS011;10838;52.350;9.790;2023-04-15T11:19:18;36.93;;;19.30;;
9372;SDS011;10838;52.350;9.790;2023-04-15T11:21:45;35.57;;;19.50;;
9372;SDS011;10838;52.350;9.790;2023-04-15T11:24:19;36.60;;;19.23;;
9372;SDS011;10838;52.350;9.790;2023-04-15T11:26:55;37.80;;;20.70;;
9372;SDS011;10838;52.350;9.790;2023-04-15T11:29:27;40.03;;;20.83;;
9372;SDS011;10838;52.350;9.790;2023-04-15T11:32:00;43.77;;;21.40;;
9372;SDS011;10838;52.350;9.790;2023-04-15T11:34:32;39.43;;;21.57;;
9372;SDS011;10838;52.350;9.790;2023-04-15T11:36:59;38.90;;;22.40;;
9372;SDS011;10838;52.350;9.790;2023-04-15T11:39:29;41.33;;;21.83;;
9372;SDS011;10838;52.350;9.790;2023-04-15T11:41:56;40.87;;;22.87;;
9372;SDS011;10838;52.350;9.790;2023-04-15T11:44:23;45.97;;;24.03;;
9372;SDS011;10838;52.350;9.790;2023-04-15T11:46:50;50.43;;;23.40;;
9372;SDS011;10838;52.350;9.790;2023-04-15T11:49:27;46.27;;;24.00;;
9372;SDS011;10838;52.350;9.790;2023-04-15T11:51:55;47.60;;;23.93;;
9372;SDS011;10838;52.350;9.790;2023-04-15T11:54:22;47.13;;;24.90;;
9372;SDS011;10838;52.350;9.790;2023-04-15T11:56:49;45.73;;;25.10;;
9372;SDS011;10838;52.350;9.790;2023-04-15T11:59:16;46.63;;;25.57;;
9372;SDS011;10838;52.350;9.790;2023-04-15T12:01:43;44.73;;;25.57;;
9372;SDS011;10838;52.350;9.790;2023-04-15T12:04:12;48.30;;;24.97;;
9372;SDS011;10838;52.350;9.790;2023-04-15T12:06:39;49.97;;;26.80;;
9372;SDS011;10838;52.350;9.790;2023-04-15T12:09:10;48.23;;;26.27;;
9372;SDS011;10838;52.350;9.790;2023-04-15T12:11:39;44.93;;;26.10;;
9372;SDS011;10838;52.350;9.790;2023-04-15T12:14:09;50.40;;;28.23;;
9372;SDS011;10838;52.350;9.790;2023-04-15T12:16:38;56.23;;;28.47;;
9372;SDS011;10838;52.350;9.790;2023-04-15T12:19:06;55.07;;;28.90;;
9372;SDS011;10838;52.350;9.790;2023-04-15T12:21:36;54.57;;;28.97;;
9372;SDS011;10838;52.350;9.790;2023-04-15T12:24:05;59.83;;;29.70;;
9372;SDS011;10838;52.350;9.790;2023-04-15T12:26:35;51.17;;;28.87;;
9372;SDS011;10838;52.350;9.790;2023-04-15T12:29:03;60.97;;;30.53;;
9372;SDS011;10838;52.350;9.790;2023-04-15T12:31:31;61.47;;;30.37;;
9372;SDS011;10838;52.350;9.790;2023-04-15T12:33:58;59.33;;;30.60;;
9372;SDS011;10838;52.350;9.790;2023-04-15T12:36:25;57.40;;;31.27;;
9372;SDS011;10838;52.350;9.790;2023-04-15T12:38:54;54.80;;;31.10;;
9372;SDS011;10838;52.350;9.790;2023-04-15T12:41:20;53.97;;;31.93;;
9372;SDS011;10838;52.350;9.790;2023-04-15T12:43:49;59.17;;;31.90;;
9372;SDS011;10838;52.350;9.790;2023-04-15T12:46:16;65.90;;;32.57;;
9372;SDS011;10838;52.350;9.790;2023-04-15T12:48:42;59.77;;;33.50;;
9372;SDS011;10838;52.350;9.790;2023-04-15T12:51:09;59.47;;;32.17;;
9372;SDS011;10838;52.350;9.790;2023-04-15T12:53:36;58.20;;;32.77;;
9372;SDS011;10838;52.350;9.790;2023-04-15T12:56:02;56.40;;;30.83;;
9372;SDS011;10838;52.350;9.790;2023-04-15T12:58:30;58.93;;;32.50;;
9372;SDS011;10838;52.350;9.790;2023-04-15T13:00:58;52.23;;;31.20;;
9372;SDS011;10838;52.350;9.790;2023-04-15T13:03:25;54.27;;;30.50;;
9372;SDS011;10838;52.350;9.790;2023-04-15T13:05:51;55.97;;;31.60;;
9372;SDS011;10838;52.350;9.790;2023-04-15T13:08:18;51.00;;;29.13;;
9372;SDS011;10838;52.350;9.790;2023-04-15T13:10:45;51.80;;;29.73;;
9372;SDS011;10838;52.350;9.790;2023-04-15T13:13:12;51.17;;;29.57;;
9372;SDS011;10838;52.350;9.790;2023-04-15T13:15:38;49.50;;;29.13;;
9372;SDS011;10838;52.350;9.790;2023-04-15T13:18:06;45.80;;;28.70;;
9372;SDS011;10838;52.350;9.790;2023-04-15T13:20:33;44.43;;;27.83;;
9372;SDS011;10838;52.350;9.790;2023-04-15T13:23:00;45.53;;;28.43;;
9372;SDS011;10838;52.350;9.790;2023-04-15T13:25:27;47.13;;;28.93;;
9372;SDS011;10838;52.350;9.790;2023-04-15T13:27:53;46.43;;;29.07;;
9372;SDS011;10838;52.350;9.790;2023-04-15T13:30:21;47.40;;;28.87;;
9372;SDS011;10838;52.350;9.790;2023-04-15T13:32:48;43.47;;;28.73;;
9372;SDS011;10838;52.350;9.790;2023-04-15T13:35:16;43.87;;;28.27;;
9372;SDS011;10838;52.350;9.790;2023-04-15T13:37:42;46.07;;;27.70;;
9372;SDS011;10838;52.350;9.790;2023-04-15T13:40:09;43.93;;;27.17;;
9372;SDS011;10838;52.350;9.790;2023-04-15T13:42:36;44.37;;;27.70;;
9372;SDS011;10838;52.350;9.790;2023-04-15T13:45:03;44.43;;;26.90;;
9372;SDS011;10838;52.350;9.790;2023-04-15T13:47:31;48.40;;;27.00;;
9372;SDS011;10838;52.350;9.790;2023-04-15T13:49:57;38.23;;;26.47;;
9372;SDS011;10838;52.350;9.790;2023-04-15T13:52:26;39.37;;;26.87;;
9372;SDS011;10838;52.350;9.790;2023-04-15T13:54:52;37.57;;;25.00;;
9372;SDS011;10838;52.350;9.790;2023-04-15T13:57:19;35.40;;;25.93;;
9372;SDS011;10838;52.350;9.790;2023-04-15T13:59:45;36.67;;;25.50;;
9372;SDS011;10838;52.350;9.790;2023-04-15T14:02:12;32.67;;;23.00;;
9372;SDS011;10838;52.350;9.790;2023-04-15T14:04:38;32.23;;;22.43;;
9372;SDS011;10838;52.350;9.790;2023-04-15T14:07:05;29.90;;;21.07;;
9372;SDS011;10838;52.350;9.790;2023-04-15T14:09:33;31.33;;;20.90;;
9372;SDS011;10838;52.350;9.790;2023-04-15T14:12:00;28.10;;;19.90;;
9372;SDS011;10838;52.350;9.790;2023-04-15T14:14:26;27.37;;;19.80;;
9372;SDS011;10838;52.350;9.790;2023-04-15T14:16:54;27.57;;;20.07;;
9372;SDS011;10838;52.350;9.790;2023-04-15T14:19:21;32.87;;;20.63;;
9372;SDS011;10838;52.350;9.790;2023-04-15T14:21:48;27.53;;;19.70;;
9372;SDS011;10838;52.350;9.790;2023-04-15T14:24:15;27.77;;;20.53;;
9372;SDS011;10838;52.350;9.790;2023-04-15T14:26:43;26.20;;;19.63;;
9372;SDS011;10838;52.350;9.790;2023-04-15T14:29:09;25.40;;;19.80;;
9372;SDS011;10838;52.350;9.790;2023-04-15T14:31:36;26.07;;;19.23;;
9372;SDS011;10838;52.350;9.790;2023-04-15T14:34:02;29.93;;;19.90;;
9372;SDS011;10838;52.350;9.790;2023-04-15T14:36:29;27.73;;;20.17;;
9372;SDS011;10838;52.350;9.790;2023-04-15T14:38:56;22.03;;;18.27;;
9372;SDS011;10838;52.350;9.790;2023-04-15T14:41:23;26.03;;;19.93;;
9372;SDS011;10838;52.350;9.790;2023-04-15T14:43:51;24.17;;;18.43;;
9372;SDS011;10838;52.350;9.790;2023-04-15T14:46:17;22.20;;;17.20;;
9372;SDS011;10838;52.350;9.790;2023-04-15T14:48:44;21.10;;;16.53;;
9372;SDS011;10838;52.350;9.790;2023-04-15T14:51:11;26.07;;;18.20;;
